createdAt,value
2023-02-18T00:00:23.650Z,100137.09
2023-02-18T00:02:52.557Z,100115.31
2023-02-18T00:05:19.556Z,100131.66
2023-02-18T00:07:46.077Z,100135.59
2023-02-18T00:10:14.649Z,100124.47
2023-02-18T00:12:41.520Z,100131.88
2023-02-18T00:15:09.599Z,100118.66
2023-02-18T00:17:36.613Z,100122.78
2023-02-18T00:20:04.425Z,100130.41
2023-02-18T00:22:31.169Z,100124.91
2023-02-18T00:24:57.618Z,100117.25
2023-02-18T00:27:24.610Z,100127.59
2023-02-18T00:29:51.138Z,100119.00
2023-02-18T00:32:17.780Z,100122.81
2023-02-18T00:34:46.118Z,100115.75
2023-02-18T00:37:13.427Z,100134.78
2023-02-18T00:39:40.003Z,100133.31
2023-02-18T00:42:06.825Z,100134.75
2023-02-18T00:44:33.289Z,100135.75
2023-02-18T00:46:59.873Z,100135.94
2023-02-18T00:49:26.776Z,100134.19
2023-02-18T00:51:53.767Z,100136.97
2023-02-18T00:54:20.516Z,100130.25
2023-02-18T00:56:47.161Z,100138.25
2023-02-18T00:59:13.580Z,100140.69
2023-02-18T01:01:40.371Z,100146.09
2023-02-18T01:04:06.841Z,100139.94
2023-02-18T01:06:33.700Z,100139.53
2023-02-18T01:09:00.184Z,100137.78
2023-02-18T01:11:26.755Z,100135.13
2023-02-18T01:13:53.410Z,100143.66
2023-02-18T01:16:20.095Z,100141.84
2023-02-18T01:18:46.632Z,100140.06
2023-02-18T01:21:13.515Z,100143.13
2023-02-18T01:23:41.805Z,100141.16
2023-02-18T01:26:09.716Z,100142.38
2023-02-18T01:28:36.563Z,100147.59
2023-02-18T01:31:11.320Z,100144.47
2023-02-18T01:33:38.168Z,100133.09
2023-02-18T01:36:05.686Z,100139.41
2023-02-18T01:38:32.268Z,100137.00
2023-02-18T01:40:58.994Z,100137.69
2023-02-18T01:43:25.526Z,100138.19
2023-02-18T01:45:59.830Z,100132.06
2023-02-18T01:48:32.929Z,100135.31
2023-02-18T01:51:16.259Z,100127.97
2023-02-18T01:54:07.698Z,100132.44
2023-02-18T01:56:47.177Z,100132.47
2023-02-18T01:59:17.641Z,100131.00
2023-02-18T02:01:44.920Z,100139.47
2023-02-18T02:04:12.063Z,100118.75
2023-02-18T02:06:38.692Z,100120.50
2023-02-18T02:09:06.988Z,100129.03
2023-02-18T02:11:56.772Z,100136.41
2023-02-18T02:14:51.982Z,100140.03
2023-02-18T02:17:33.058Z,100146.22
2023-02-18T02:20:33.145Z,100148.31
2023-02-18T02:23:26.361Z,100134.94
2023-02-18T02:26:15.689Z,100143.44
2023-02-18T02:29:05.388Z,100141.75
2023-02-18T02:31:50.786Z,100139.31
2023-02-18T02:34:32.734Z,100135.72
2023-02-18T02:37:34.464Z,100132.00
2023-02-18T02:40:27.417Z,100136.72
2023-02-18T02:43:06.277Z,100142.75
2023-02-18T02:45:55.929Z,100137.97
2023-02-18T02:48:35.089Z,100146.63
2023-02-18T02:51:23.333Z,100140.22
2023-02-18T02:53:49.871Z,100136.28
2023-02-18T02:56:19.231Z,100130.19
2023-02-18T02:58:51.760Z,100140.97
2023-02-18T03:01:49.598Z,100126.44
2023-02-18T03:04:22.333Z,100140.94
2023-02-18T03:07:07.996Z,100135.25
2023-02-18T03:09:59.324Z,100129.97
2023-02-18T03:12:32.942Z,100139.13
2023-02-18T03:15:23.275Z,100140.75
2023-02-18T03:18:05.247Z,100148.94
2023-02-18T03:20:35.683Z,100145.97
2023-02-18T03:23:11.364Z,100138.44
2023-02-18T03:25:38.710Z,100140.88
2023-02-18T03:28:08.629Z,100134.50
2023-02-18T03:30:41.965Z,100137.78
2023-02-18T03:33:10.231Z,100134.50
2023-02-18T03:35:37.737Z,100141.91
2023-02-18T03:38:16.940Z,100139.78
2023-02-18T03:40:43.590Z,100129.16
2023-02-18T03:43:10.074Z,100142.22
2023-02-18T03:45:36.761Z,100144.19
2023-02-18T03:48:03.408Z,100145.34
2023-02-18T03:50:29.903Z,100140.13
2023-02-18T03:52:56.389Z,100139.78
2023-02-18T03:55:22.833Z,100135.06
2023-02-18T03:57:49.520Z,100134.25
2023-02-18T04:00:16.167Z,100136.06
2023-02-18T04:02:42.793Z,100143.91
2023-02-18T04:05:09.649Z,100146.19
2023-02-18T04:07:36.360Z,100148.16
2023-02-18T04:10:04.075Z,100145.72
2023-02-18T04:12:30.501Z,100141.44
2023-02-18T04:14:57.000Z,100143.91
2023-02-18T04:17:23.514Z,100156.16
2023-02-18T04:19:49.943Z,100145.88
2023-02-18T04:22:16.484Z,100151.09
2023-02-18T04:24:43.053Z,100137.69
2023-02-18T04:27:09.506Z,100144.72
2023-02-18T04:29:36.096Z,100151.09
2023-02-18T04:32:02.769Z,100147.16
2023-02-18T04:34:29.354Z,100147.00
2023-02-18T04:36:56.187Z,100140.81
2023-02-18T04:39:22.949Z,100131.50
2023-02-18T04:41:49.452Z,100119.91
2023-02-18T04:44:16.091Z,100114.22
2023-02-18T04:46:42.551Z,100135.28
2023-02-18T04:49:09.060Z,100129.25
2023-02-18T04:51:37.618Z,100145.22
2023-02-18T04:54:04.751Z,100143.59
2023-02-18T04:56:31.217Z,100149.16
2023-02-18T04:58:57.792Z,100141.50
2023-02-18T05:01:24.300Z,100136.91
2023-02-18T05:03:50.769Z,100152.41
2023-02-18T05:06:17.292Z,100140.63
2023-02-18T05:08:43.776Z,100141.63
2023-02-18T05:11:10.599Z,100141.94
2023-02-18T05:13:37.012Z,100132.13
2023-02-18T05:16:03.714Z,100140.00
2023-02-18T05:18:30.192Z,100126.59
2023-02-18T05:20:56.749Z,100124.28
2023-02-18T05:23:23.219Z,100115.47
2023-02-18T05:25:49.710Z,100124.75
2023-02-18T05:28:16.907Z,100118.13
2023-02-18T05:30:43.453Z,100116.28
2023-02-18T05:33:09.957Z,100113.69
2023-02-18T05:35:36.396Z,100119.56
2023-02-18T05:38:02.936Z,100115.03
2023-02-18T05:40:29.409Z,100110.75
2023-02-18T05:42:55.847Z,100101.47
2023-02-18T05:45:22.289Z,100103.91
2023-02-18T05:47:48.949Z,100110.75
2023-02-18T05:50:15.425Z,100102.75
2023-02-18T05:52:41.845Z,100091.97
2023-02-18T05:55:08.301Z,100092.97
2023-02-18T05:57:34.729Z,100099.53
2023-02-18T06:00:01.320Z,100095.44
2023-02-18T06:02:27.739Z,100090.09
2023-02-18T06:04:54.341Z,100096.34
2023-02-18T06:07:20.803Z,100089.66
2023-02-18T06:09:47.308Z,100090.84
2023-02-18T06:12:13.878Z,100083.72
2023-02-18T06:14:43.136Z,100090.25
2023-02-18T06:17:10.350Z,100093.88
2023-02-18T06:19:36.896Z,100087.19
2023-02-18T06:22:03.796Z,100092.09
2023-02-18T06:24:30.466Z,100087.22
2023-02-18T06:26:57.137Z,100081.53
2023-02-18T06:29:23.696Z,100081.09
2023-02-18T06:31:50.314Z,100082.84
2023-02-18T06:34:17.107Z,100077.94
2023-02-18T06:36:43.560Z,100084.16
2023-02-18T06:39:09.968Z,100079.91
2023-02-18T06:41:36.495Z,100078.75
2023-02-18T06:44:02.993Z,100084.78
2023-02-18T06:46:29.626Z,100076.78
2023-02-18T06:48:56.175Z,100079.09
2023-02-18T06:51:23.500Z,100075.03
2023-02-18T06:53:49.988Z,100066.84
2023-02-18T06:56:16.601Z,100073.19
2023-02-18T06:58:43.085Z,100072.06
2023-02-18T07:01:09.635Z,100072.19
2023-02-18T07:03:36.165Z,100072.88
2023-02-18T07:06:02.738Z,100067.47
2023-02-18T07:08:30.897Z,100066.13
2023-02-18T07:10:57.409Z,100066.81
2023-02-18T07:13:23.983Z,100061.25
2023-02-18T07:15:50.410Z,100054.09
2023-02-18T07:18:17.521Z,100057.00
2023-02-18T07:20:43.953Z,100045.56
2023-02-18T07:23:11.288Z,100042.31
2023-02-18T07:25:37.824Z,100032.66
2023-02-18T07:28:04.624Z,100029.88
2023-02-18T07:30:31.313Z,100025.53
2023-02-18T07:32:57.811Z,100029.19
2023-02-18T07:35:24.316Z,100021.19
2023-02-18T07:37:51.222Z,100018.44
2023-02-18T07:40:20.417Z,100027.59
2023-02-18T07:42:47.483Z,100020.72
2023-02-18T07:45:14.661Z,100025.47
2023-02-18T07:47:42.178Z,100019.56
2023-02-18T07:50:09.427Z,99988.34
2023-02-18T07:52:35.880Z,100002.97
2023-02-18T07:55:02.450Z,99997.06
2023-02-18T07:57:29.280Z,100008.47
2023-02-18T07:59:55.769Z,99989.41
2023-02-18T08:02:24.326Z,99984.72
2023-02-18T08:04:51.057Z,99998.47
2023-02-18T08:07:19.457Z,99998.94
2023-02-18T08:09:45.971Z,99968.41
2023-02-18T08:12:12.432Z,99978.72
2023-02-18T08:14:38.942Z,99970.38
2023-02-18T08:17:05.417Z,99961.44
2023-02-18T08:19:31.872Z,99961.72
2023-02-18T08:22:02.025Z,99952.03
2023-02-18T08:24:28.514Z,99952.50
2023-02-18T08:27:00.824Z,99955.91
2023-02-18T08:29:27.879Z,99957.00
2023-02-18T08:31:55.197Z,99950.09
2023-02-18T08:34:21.721Z,99926.66
2023-02-18T08:36:48.101Z,99932.97
2023-02-18T08:39:14.555Z,99941.06
2023-02-18T08:41:41.025Z,99928.16
2023-02-18T08:44:07.497Z,99914.09
2023-02-18T08:46:36.030Z,99909.06
2023-02-18T08:49:04.381Z,99902.63
2023-02-18T08:51:31.565Z,99915.91
2023-02-18T08:53:58.460Z,99915.91
2023-02-18T08:56:27.005Z,99908.09
2023-02-18T08:58:53.523Z,99903.19
2023-02-18T09:01:20.934Z,99894.53
2023-02-18T09:03:48.361Z,99891.31
2023-02-18T09:06:14.898Z,99886.00
2023-02-18T09:08:41.355Z,99877.63
2023-02-18T09:11:08.248Z,99880.34
2023-02-18T09:13:35.185Z,99872.38
2023-02-18T09:16:04.600Z,99865.25
2023-02-18T09:18:32.884Z,99863.16
2023-02-18T09:21:00.607Z,99858.94
2023-02-18T09:23:28.819Z,99872.09
2023-02-18T09:25:55.396Z,99856.88
2023-02-18T09:28:22.077Z,99852.91
2023-02-18T09:30:48.637Z,99843.88
2023-02-18T09:33:15.800Z,99843.09
2023-02-18T09:35:43.905Z,99829.16
2023-02-18T09:38:11.728Z,99828.00
2023-02-18T09:40:42.655Z,99830.91
2023-02-18T09:43:32.436Z,99818.88
2023-02-18T09:46:00.630Z,99814.94
2023-02-18T09:48:29.612Z,99805.00
2023-02-18T09:50:56.283Z,99811.59
2023-02-18T09:53:24.101Z,99810.59
2023-02-18T09:55:56.271Z,99806.84
2023-02-18T09:58:29.469Z,99797.41
2023-02-18T10:01:32.794Z,99791.72
2023-02-18T10:04:04.090Z,99796.56
2023-02-18T10:06:34.748Z,99795.28
2023-02-18T10:09:23.089Z,99779.88
2023-02-18T10:11:53.190Z,99779.28
2023-02-18T10:14:19.933Z,99787.84
2023-02-18T10:16:47.334Z,99777.13
2023-02-18T10:19:40.994Z,99775.72
2023-02-18T10:22:09.039Z,99764.09
2023-02-18T10:24:38.563Z,99763.50
2023-02-18T10:27:06.798Z,99755.00
2023-02-18T10:29:33.726Z,99760.78
2023-02-18T10:32:27.326Z,99748.94
2023-02-18T10:34:55.377Z,99749.13
2023-02-18T10:37:27.744Z,99738.22
2023-02-18T10:40:14.260Z,99741.44
2023-02-18T10:43:02.601Z,99741.09
2023-02-18T10:45:37.212Z,99731.66
2023-02-18T10:48:28.214Z,99733.28
2023-02-18T10:50:55.278Z,99730.41
2023-02-18T10:53:37.979Z,99713.25
2023-02-18T10:56:06.539Z,99707.31
2023-02-18T10:58:42.449Z,99699.41
2023-02-18T11:01:17.427Z,99685.22
2023-02-18T11:03:53.132Z,99681.72
2023-02-18T11:06:34.274Z,99672.31
2023-02-18T11:09:00.960Z,99666.84
2023-02-18T11:11:33.667Z,99653.81
2023-02-18T11:14:04.769Z,99655.59
2023-02-18T11:16:47.285Z,99645.34
2023-02-18T11:19:39.347Z,99636.19
2023-02-18T11:22:19.141Z,99631.50
2023-02-18T11:24:48.591Z,99620.59
2023-02-18T11:27:24.885Z,99624.25
2023-02-18T11:29:54.684Z,99634.88
2023-02-18T11:32:21.666Z,99629.09
2023-02-18T11:34:49.436Z,99614.56
2023-02-18T11:37:19.962Z,99617.06
2023-02-18T11:39:49.123Z,99598.78
2023-02-18T11:42:18.319Z,99593.34
2023-02-18T11:44:59.313Z,99588.09
2023-02-18T11:47:31.382Z,99587.34
2023-02-18T11:50:16.294Z,99585.94
2023-02-18T11:52:47.801Z,99583.16
2023-02-18T11:55:23.180Z,99559.91
2023-02-18T11:57:58.980Z,99567.31
2023-02-18T12:00:43.391Z,99561.09
2023-02-18T12:03:19.101Z,99561.75
2023-02-18T12:05:45.821Z,99558.22
2023-02-18T12:08:18.140Z,99549.41
2023-02-18T12:10:49.353Z,99565.72
2023-02-18T12:13:29.223Z,99542.38
2023-02-18T12:16:22.062Z,99563.38
2023-02-18T12:18:54.524Z,99550.84
2023-02-18T12:21:35.590Z,99566.22
2023-02-18T12:24:14.668Z,99572.09
2023-02-18T12:27:09.732Z,99565.53
2023-02-18T12:29:52.624Z,99567.03
2023-02-18T12:32:40.981Z,99571.34
2023-02-18T12:35:39.828Z,99562.13
2023-02-18T12:38:32.819Z,99578.91
2023-02-18T12:41:19.235Z,99558.16
2023-02-18T12:44:09.705Z,99559.63
2023-02-18T12:46:48.443Z,99564.31
2023-02-18T12:49:23.921Z,99576.13
2023-02-18T12:52:05.520Z,99563.22
2023-02-18T12:54:47.954Z,99572.38
2023-02-18T12:57:36.914Z,99566.59
2023-02-18T13:00:03.578Z,99560.19
2023-02-18T13:02:47.881Z,99567.25
2023-02-18T13:05:33.159Z,99563.44
2023-02-18T13:08:36.246Z,99568.22
2023-02-18T13:11:14.784Z,99561.75
2023-02-18T13:13:45.341Z,99566.38
2023-02-18T13:16:14.144Z,99554.88
2023-02-18T13:18:43.252Z,99551.28
2023-02-18T13:21:13.085Z,99545.53
2023-02-18T13:23:46.321Z,99540.25
2023-02-18T13:26:14.389Z,99536.78
2023-02-18T13:28:55.477Z,99550.44
2023-02-18T13:31:32.592Z,99556.59
2023-02-18T13:34:04.775Z,99559.25
2023-02-18T13:36:36.579Z,99550.59
2023-02-18T13:39:04.770Z,99543.91
2023-02-18T13:41:36.717Z,99567.34
2023-02-18T13:44:08.381Z,99576.34
2023-02-18T13:46:52.214Z,99563.44
2023-02-18T13:49:22.726Z,99572.16
2023-02-18T13:51:51.143Z,99560.56
2023-02-18T13:54:29.922Z,99553.84
2023-02-18T13:57:03.908Z,99571.28
2023-02-18T13:59:35.434Z,99571.63
2023-02-18T14:02:32.774Z,99567.41
2023-02-18T14:05:08.519Z,99561.91
2023-02-18T14:07:41.503Z,99557.66
2023-02-18T14:10:17.073Z,99565.56
2023-02-18T14:12:50.428Z,99553.25
2023-02-18T14:15:18.003Z,99574.75
2023-02-18T14:18:06.711Z,99568.00
2023-02-18T14:20:45.299Z,99569.25
2023-02-18T14:23:18.729Z,99579.94
2023-02-18T14:26:08.965Z,99562.50
2023-02-18T14:28:36.136Z,99554.97
2023-02-18T14:31:06.345Z,99558.53
2023-02-18T14:33:35.942Z,99557.81
2023-02-18T14:36:14.673Z,99572.84
2023-02-18T14:39:26.850Z,99566.38
2023-02-18T14:42:25.330Z,99563.22
2023-02-18T14:45:24.424Z,99569.59
2023-02-18T14:48:34.186Z,99549.81
2023-02-18T14:51:01.546Z,99554.16
2023-02-18T14:53:28.505Z,99558.84
2023-02-18T14:55:59.425Z,99556.78
2023-02-18T14:58:41.646Z,99576.72
2023-02-18T15:01:24.122Z,99587.84
2023-02-18T15:03:52.491Z,99614.72
2023-02-18T15:06:26.205Z,99608.44
2023-02-18T15:08:52.910Z,99615.53
2023-02-18T15:11:21.935Z,99599.38
2023-02-18T15:13:48.546Z,99598.53
2023-02-18T15:16:32.518Z,99601.13
2023-02-18T15:19:01.120Z,99613.31
2023-02-18T15:21:37.928Z,99592.25
2023-02-18T15:24:10.362Z,99602.56
2023-02-18T15:26:42.110Z,99591.16
2023-02-18T15:29:18.603Z,99601.13
2023-02-18T15:31:46.914Z,99601.94
2023-02-18T15:34:25.923Z,99598.66
2023-02-18T15:36:53.041Z,99597.38
2023-02-18T15:39:19.566Z,99603.75
2023-02-18T15:41:47.091Z,99604.66
2023-02-18T15:44:21.593Z,99608.91
2023-02-18T15:46:48.250Z,99598.47
2023-02-18T15:49:16.453Z,99606.91
2023-02-18T15:51:43.774Z,99601.44
2023-02-18T15:54:19.296Z,99600.00
2023-02-18T15:56:50.277Z,99592.91
2023-02-18T15:59:30.531Z,99605.84
2023-02-18T16:02:09.435Z,99602.50
2023-02-18T16:04:41.312Z,99603.97
2023-02-18T16:07:25.462Z,99609.53
2023-02-18T16:10:09.936Z,99614.38
2023-02-18T16:12:37.960Z,99624.50
2023-02-18T16:15:05.657Z,99622.81
2023-02-18T16:17:32.349Z,99630.06
2023-02-18T16:20:21.922Z,99630.06
2023-02-18T16:22:54.557Z,99629.09
2023-02-18T16:25:21.022Z,99631.69
2023-02-18T16:28:04.517Z,99637.25
2023-02-18T16:30:34.560Z,99644.91
2023-02-18T16:33:01.337Z,99649.94
2023-02-18T16:35:32.803Z,99641.94
2023-02-18T16:38:04.338Z,99642.03
2023-02-18T16:40:36.658Z,99646.78
2023-02-18T16:43:15.538Z,99636.09
2023-02-18T16:45:45.706Z,99648.50
2023-02-18T16:48:34.039Z,99672.38
2023-02-18T16:51:06.143Z,99656.41
2023-02-18T16:53:32.935Z,99661.16
2023-02-18T16:56:00.882Z,99661.88
2023-02-18T16:58:27.599Z,99671.56
2023-02-18T17:00:54.503Z,99666.38
2023-02-18T17:03:21.121Z,99673.91
2023-02-18T17:05:47.673Z,99671.13
2023-02-18T17:08:18.705Z,99686.66
2023-02-18T17:10:47.346Z,99689.09
2023-02-18T17:13:19.985Z,99681.91
2023-02-18T17:15:48.149Z,99687.03
2023-02-18T17:18:14.967Z,99686.50
2023-02-18T17:20:41.550Z,99697.56
2023-02-18T17:23:08.129Z,99703.47
2023-02-18T17:25:39.649Z,99689.91
2023-02-18T17:28:06.396Z,99699.34
2023-02-18T17:30:36.281Z,99709.13
2023-02-18T17:33:03.695Z,99711.34
2023-02-18T17:35:30.658Z,99714.59
2023-02-18T17:37:57.135Z,99723.94
2023-02-18T17:40:26.897Z,99734.31
2023-02-18T17:42:55.049Z,99726.28
2023-02-18T17:45:32.119Z,99730.81
2023-02-18T17:47:59.911Z,99734.31
2023-02-18T17:50:27.559Z,99747.50
2023-02-18T17:52:55.319Z,99761.16
2023-02-18T17:55:23.344Z,99752.50
2023-02-18T17:57:51.351Z,99749.47
2023-02-18T18:00:26.770Z,99752.25
2023-02-18T18:02:53.684Z,99749.47
2023-02-18T18:05:23.423Z,99766.72
2023-02-18T18:07:50.298Z,99754.09
2023-02-18T18:10:18.361Z,99764.25
2023-02-18T18:12:45.265Z,99772.06
2023-02-18T18:15:34.772Z,99784.47
2023-02-18T18:18:01.349Z,99783.31
2023-02-18T18:20:29.415Z,99764.75
2023-02-18T18:22:57.157Z,99766.50
2023-02-18T18:25:25.295Z,99782.59
2023-02-18T18:27:52.914Z,99794.88
2023-02-18T18:30:28.293Z,99791.94
2023-02-18T18:32:55.425Z,99804.56
2023-02-18T18:35:35.420Z,99799.44
2023-02-18T18:38:02.424Z,99811.50
2023-02-18T18:40:31.661Z,99803.25
2023-02-18T18:43:00.249Z,99809.91
2023-02-18T18:45:32.909Z,99796.69
2023-02-18T18:48:00.280Z,99814.81
2023-02-18T18:50:27.881Z,99811.94
2023-02-18T18:52:54.576Z,99802.31
2023-02-18T18:55:34.536Z,99808.47
2023-02-18T18:58:01.398Z,99807.19
2023-02-18T19:00:29.659Z,99812.75
2023-02-18T19:02:56.446Z,99808.00
2023-02-18T19:05:29.823Z,99803.38
2023-02-18T19:07:58.331Z,99797.56
2023-02-18T19:10:27.987Z,99802.06
2023-02-18T19:12:56.061Z,99811.22
2023-02-18T19:15:23.332Z,99809.75
2023-02-18T19:17:52.435Z,99816.22
2023-02-18T19:20:22.269Z,99817.16
2023-02-18T19:22:49.059Z,99818.06
2023-02-18T19:25:16.003Z,99819.22
2023-02-18T19:27:43.971Z,99818.50
2023-02-18T19:30:17.861Z,99818.59
2023-02-18T19:32:45.678Z,99813.84
2023-02-18T19:35:12.440Z,99828.38
2023-02-18T19:37:39.012Z,99813.75
2023-02-18T19:40:08.073Z,99823.16
2023-02-18T19:42:34.581Z,99832.31
2023-02-18T19:45:01.425Z,99835.25
2023-02-18T19:47:28.528Z,99833.63
2023-02-18T19:49:55.334Z,99833.03
2023-02-18T19:52:22.115Z,99839.81
2023-02-18T19:54:48.552Z,99832.53
2023-02-18T19:57:15.080Z,99846.47
2023-02-18T19:59:41.678Z,99844.38
2023-02-18T20:02:13.015Z,99835.34
2023-02-18T20:04:39.638Z,99847.84
2023-02-18T20:07:06.314Z,99843.44
2023-02-18T20:09:32.877Z,99840.75
2023-02-18T20:11:59.479Z,99845.50
2023-02-18T20:14:27.172Z,99850.97
2023-02-18T20:16:54.019Z,99855.00
2023-02-18T20:19:20.707Z,99849.94
2023-02-18T20:21:47.169Z,99852.25
2023-02-18T20:24:13.909Z,99852.50
2023-02-18T20:26:40.477Z,99862.47
2023-02-18T20:29:06.953Z,99849.03
2023-02-18T20:31:33.752Z,99858.16
2023-02-18T20:34:00.423Z,99856.41
2023-02-18T20:36:27.930Z,99857.22
2023-02-18T20:38:54.396Z,99857.44
2023-02-18T20:41:21.920Z,99869.94
2023-02-18T20:43:48.505Z,99863.34
2023-02-18T20:46:17.417Z,99869.13
2023-02-18T20:48:44.243Z,99877.13
2023-02-18T20:51:13.525Z,99868.66
2023-02-18T20:53:41.636Z,99876.88
2023-02-18T20:56:08.557Z,99874.56
2023-02-18T20:58:35.808Z,99861.00
2023-02-18T21:01:08.964Z,99864.94
2023-02-18T21:03:36.321Z,99858.00
2023-02-18T21:06:06.026Z,99864.63
2023-02-18T21:08:33.186Z,99862.66
2023-02-18T21:11:05.290Z,99856.97
2023-02-18T21:13:32.514Z,99869.38
2023-02-18T21:15:59.209Z,99867.88
2023-02-18T21:18:26.088Z,99872.72
2023-02-18T21:20:52.749Z,99872.84
2023-02-18T21:23:19.377Z,99874.00
2023-02-18T21:25:45.975Z,99865.19
2023-02-18T21:28:12.435Z,99861.25
2023-02-18T21:30:42.608Z,99862.16
2023-02-18T21:33:11.426Z,99868.09
2023-02-18T21:35:45.165Z,99873.28
2023-02-18T21:38:45.434Z,99872.03
2023-02-18T21:41:12.934Z,99865.31
2023-02-18T21:43:39.590Z,99864.59
2023-02-18T21:46:17.348Z,99861.34
2023-02-18T21:49:02.120Z,99861.59
2023-02-18T21:51:49.208Z,99863.94
2023-02-18T21:54:17.062Z,99864.63
2023-02-18T21:56:43.547Z,99865.22
2023-02-18T21:59:10.106Z,99859.91
2023-02-18T22:01:36.645Z,99860.94
2023-02-18T22:04:03.473Z,99860.13
2023-02-18T22:06:30.352Z,99856.19
2023-02-18T22:09:00.237Z,99858.63
2023-02-18T22:11:27.329Z,99850.63
2023-02-18T22:13:53.810Z,99859.44
2023-02-18T22:16:20.539Z,99855.38
2023-02-18T22:18:46.990Z,99857.81
2023-02-18T22:21:13.504Z,99859.78
2023-02-18T22:23:40.049Z,99866.06
2023-02-18T22:26:08.452Z,99861.06
2023-02-18T22:28:35.635Z,99855.25
2023-02-18T22:31:10.044Z,99863.84
2023-02-18T22:33:36.934Z,99859.44
2023-02-18T22:36:07.195Z,99862.09
2023-02-18T22:38:38.201Z,99863.00
2023-02-18T22:41:07.226Z,99863.22
2023-02-18T22:43:34.094Z,99863.69
2023-02-18T22:46:04.703Z,99874.34
2023-02-18T22:48:32.737Z,99866.56
2023-02-18T22:51:07.025Z,99878.41
2023-02-18T22:53:34.034Z,99880.41
2023-02-18T22:56:05.767Z,99872.19
2023-02-18T22:58:32.406Z,99879.25
2023-02-18T23:00:58.952Z,99871.72
2023-02-18T23:03:28.987Z,99870.66
2023-02-18T23:05:56.178Z,99871.72
2023-02-18T23:08:22.663Z,99873.91
2023-02-18T23:11:02.743Z,99869.88
2023-02-18T23:13:29.920Z,99877.97
2023-02-18T23:16:01.151Z,99885.50
2023-02-18T23:18:28.336Z,99881.22
2023-02-18T23:21:18.524Z,99887.81
2023-02-18T23:23:46.116Z,99873.09
2023-02-18T23:26:13.410Z,99870.75
2023-02-18T23:28:49.199Z,99881.63
2023-02-18T23:31:21.870Z,99872.72
2023-02-18T23:33:50.411Z,99866.78
2023-02-18T23:36:19.167Z,99865.88
2023-02-18T23:38:53.334Z,99871.53
2023-02-18T23:41:20.435Z,99865.16
2023-02-18T23:43:47.475Z,99865.16
2023-02-18T23:46:15.028Z,99867.47
2023-02-18T23:48:41.545Z,99862.13
2023-02-18T23:51:09.613Z,99857.72
2023-02-18T23:53:37.035Z,99865.59
2023-02-18T23:56:14.769Z,99862.47
2023-02-18T23:58:43.093Z,99858.41
